sensor_id;sensor_type;location;lat;lon;timestamp;P1;durP1;ratioP1;P2;durP2;ratioP2
52798;SDS011;38667;42.872;74.622;2023-04-06T00:01:26;35.78;;;8.10;;
52798;SDS011;38667;42.872;74.622;2023-04-06T00:03:52;43.40;;;9.75;;
52798;SDS011;38667;42.872;74.622;2023-04-06T00:06:18;36.38;;;7.97;;
52798;SDS011;38667;42.872;74.622;2023-04-06T00:08:45;34.78;;;8.30;;
52798;SDS011;38667;42.872;74.622;2023-04-06T00:11:11;35.63;;;7.50;;
52798;SDS011;38667;42.872;74.622;2023-04-06T00:13:39;35.97;;;7.85;;
52798;SDS011;38667;42.872;74.622;2023-04-06T00:16:05;33.30;;;7.53;;
52798;SDS011;38667;42.872;74.622;2023-04-06T00:18:32;41.63;;;7.55;;
52798;SDS011;38667;42.872;74.622;2023-04-06T00:20:58;43.92;;;8.60;;
52798;SDS011;38667;42.872;74.622;2023-04-06T00:23:25;30.40;;;7.13;;
52798;SDS011;38667;42.872;74.622;2023-04-06T00:25:51;37.40;;;7.00;;
52798;SDS011;38667;42.872;74.622;2023-04-06T00:28:17;42.05;;;6.95;;
52798;SDS011;38667;42.872;74.622;2023-04-06T00:30:46;38.38;;;7.07;;
52798;SDS011;38667;42.872;74.622;2023-04-06T00:33:12;40.33;;;7.80;;
52798;SDS011;38667;42.872;74.622;2023-04-06T00:35:39;33.70;;;6.40;;
52798;SDS011;38667;42.872;74.622;2023-04-06T00:38:05;37.58;;;6.88;;
52798;SDS011;38667;42.872;74.622;2023-04-06T00:40:31;41.83;;;7.43;;
52798;SDS011;38667;42.872;74.622;2023-04-06T00:42:58;40.28;;;8.20;;
52798;SDS011;38667;42.872;74.622;2023-04-06T00:45:24;29.73;;;7.60;;
52798;SDS011;38667;42.872;74.622;2023-04-06T00:47:52;48.10;;;7.63;;
52798;SDS011;38667;42.872;74.622;2023-04-06T00:50:18;40.75;;;7.05;;
52798;SDS011;38667;42.872;74.622;2023-04-06T00:52:45;44.33;;;7.97;;
52798;SDS011;38667;42.872;74.622;2023-04-06T00:55:11;30.08;;;5.88;;
52798;SDS011;38667;42.872;74.622;2023-04-06T00:57:38;24.13;;;5.25;;
52798;SDS011;38667;42.872;74.622;2023-04-06T01:00:04;26.80;;;6.25;;
52798;SDS011;38667;42.872;74.622;2023-04-06T01:02:32;31.00;;;5.18;;
52798;SDS011;38667;42.872;74.622;2023-04-06T01:05:00;26.77;;;4.90;;
52798;SDS011;38667;42.872;74.622;2023-04-06T01:07:26;21.80;;;5.20;;
52798;SDS011;38667;42.872;74.622;2023-04-06T01:09:53;24.48;;;5.65;;
52798;SDS011;38667;42.872;74.622;2023-04-06T01:12:19;24.75;;;4.78;;
52798;SDS011;38667;42.872;74.622;2023-04-06T01:14:46;19.35;;;4.90;;
52798;SDS011;38667;42.872;74.622;2023-04-06T01:17:12;18.60;;;5.03;;
52798;SDS011;38667;42.872;74.622;2023-04-06T01:19:39;19.42;;;5.22;;
52798;SDS011;38667;42.872;74.622;2023-04-06T01:22:07;18.80;;;4.88;;
52798;SDS011;38667;42.872;74.622;2023-04-06T01:24:35;25.70;;;4.88;;
52798;SDS011;38667;42.872;74.622;2023-04-06T01:27:01;16.75;;;4.50;;
52798;SDS011;38667;42.872;74.622;2023-04-06T01:29:27;11.98;;;4.53;;
52798;SDS011;38667;42.872;74.622;2023-04-06T01:31:54;25.10;;;4.53;;
52798;SDS011;38667;42.872;74.622;2023-04-06T01:34:20;15.88;;;4.30;;
52798;SDS011;38667;42.872;74.622;2023-04-06T01:36:46;20.35;;;4.15;;
52798;SDS011;38667;42.872;74.622;2023-04-06T01:39:13;22.52;;;5.03;;
52798;SDS011;38667;42.872;74.622;2023-04-06T01:41:41;18.63;;;4.93;;
52798;SDS011;38667;42.872;74.622;2023-04-06T01:44:08;21.65;;;5.22;;
52798;SDS011;38667;42.872;74.622;2023-04-06T01:46:34;14.82;;;4.80;;
52798;SDS011;38667;42.872;74.622;2023-04-06T01:49:01;27.05;;;4.82;;
52798;SDS011;38667;42.872;74.622;2023-04-06T01:51:27;20.70;;;5.55;;
52798;SDS011;38667;42.872;74.622;2023-04-06T01:53:53;15.32;;;5.22;;
52798;SDS011;38667;42.872;74.622;2023-04-06T01:56:20;14.23;;;5.30;;
52798;SDS011;38667;42.872;74.622;2023-04-06T01:58:48;31.48;;;6.68;;
52798;SDS011;38667;42.872;74.622;2023-04-06T02:01:14;18.83;;;5.82;;
52798;SDS011;38667;42.872;74.622;2023-04-06T02:03:40;21.90;;;6.50;;
52798;SDS011;38667;42.872;74.622;2023-04-06T02:06:07;20.80;;;6.20;;
52798;SDS011;38667;42.872;74.622;2023-04-06T02:08:33;13.93;;;4.90;;
52798;SDS011;38667;42.872;74.622;2023-04-06T02:10:59;18.50;;;4.97;;
52798;SDS011;38667;42.872;74.622;2023-04-06T02:13:26;19.80;;;5.80;;
52798;SDS011;38667;42.872;74.622;2023-04-06T02:15:53;20.90;;;5.07;;
52798;SDS011;38667;42.872;74.622;2023-04-06T02:18:20;15.90;;;5.55;;
52798;SDS011;38667;42.872;74.622;2023-04-06T02:20:46;13.30;;;5.68;;
52798;SDS011;38667;42.872;74.622;2023-04-06T02:23:13;24.80;;;5.82;;
52798;SDS011;38667;42.872;74.622;2023-04-06T02:25:39;16.63;;;4.82;;
52798;SDS011;38667;42.872;74.622;2023-04-06T02:28:06;17.73;;;5.43;;
52798;SDS011;38667;42.872;74.622;2023-04-06T02:30:32;17.17;;;5.07;;
52798;SDS011;38667;42.872;74.622;2023-04-06T02:33:00;16.95;;;5.50;;
52798;SDS011;38667;42.872;74.622;2023-04-06T02:35:27;19.30;;;5.55;;
52798;SDS011;38667;42.872;74.622;2023-04-06T02:37:54;16.60;;;6.13;;
52798;SDS011;38667;42.872;74.622;2023-04-06T02:40:20;17.55;;;5.88;;
52798;SDS011;38667;42.872;74.622;2023-04-06T02:42:47;15.75;;;6.47;;
52798;SDS011;38667;42.872;74.622;2023-04-06T02:45:13;15.88;;;5.90;;
52798;SDS011;38667;42.872;74.622;2023-04-06T02:47:39;16.75;;;6.10;;
52798;SDS011;38667;42.872;74.622;2023-04-06T02:50:09;14.05;;;5.88;;
52798;SDS011;38667;42.872;74.622;2023-04-06T02:52:35;14.50;;;5.35;;
52798;SDS011;38667;42.872;74.622;2023-04-06T02:55:02;16.52;;;6.13;;
52798;SDS011;38667;42.872;74.622;2023-04-06T02:57:29;22.50;;;5.95;;
52798;SDS011;38667;42.872;74.622;2023-04-06T02:59:55;19.75;;;6.45;;
52798;SDS011;38667;42.872;74.622;2023-04-06T03:02:21;18.88;;;5.45;;
52798;SDS011;38667;42.872;74.622;2023-04-06T03:04:48;19.42;;;5.20;;
52798;SDS011;38667;42.872;74.622;2023-04-06T03:07:16;14.10;;;5.30;;
52798;SDS011;38667;42.872;74.622;2023-04-06T03:09:42;23.80;;;5.63;;
52798;SDS011;38667;42.872;74.622;2023-04-06T03:12:08;17.27;;;5.20;;
52798;SDS011;38667;42.872;74.622;2023-04-06T03:14:35;17.10;;;5.15;;
52798;SDS011;38667;42.872;74.622;2023-04-06T03:17:01;15.52;;;4.43;;
52798;SDS011;38667;42.872;74.622;2023-04-06T03:19:28;19.42;;;5.03;;
52798;SDS011;38667;42.872;74.622;2023-04-06T03:21:54;18.15;;;4.78;;
52798;SDS011;38667;42.872;74.622;2023-04-06T03:24:22;25.38;;;5.90;;
52798;SDS011;38667;42.872;74.622;2023-04-06T03:26:48;12.73;;;4.45;;
52798;SDS011;38667;42.872;74.622;2023-04-06T03:29:15;18.35;;;4.53;;
52798;SDS011;38667;42.872;74.622;2023-04-06T03:31:41;16.45;;;4.82;;
52798;SDS011;38667;42.872;74.622;2023-04-06T03:34:07;17.88;;;5.10;;
52798;SDS011;38667;42.872;74.622;2023-04-06T03:36:34;17.15;;;5.60;;
52798;SDS011;38667;42.872;74.622;2023-04-06T03:39:00;21.02;;;4.90;;
52798;SDS011;38667;42.872;74.622;2023-04-06T03:41:28;15.27;;;4.85;;
52798;SDS011;38667;42.872;74.622;2023-04-06T03:43:54;13.02;;;4.90;;
52798;SDS011;38667;42.872;74.622;2023-04-06T03:46:21;18.67;;;4.65;;
52798;SDS011;38667;42.872;74.622;2023-04-06T03:48:48;18.60;;;4.63;;
52798;SDS011;38667;42.872;74.622;2023-04-06T03:51:14;14.63;;;4.75;;
52798;SDS011;38667;42.872;74.622;2023-04-06T03:53:40;15.75;;;4.97;;
52798;SDS011;38667;42.872;74.622;2023-04-06T03:56:07;12.23;;;4.70;;
52798;SDS011;38667;42.872;74.622;2023-04-06T03:58:35;16.15;;;4.68;;
52798;SDS011;38667;42.872;74.622;2023-04-06T04:01:01;12.90;;;4.47;;
52798;SDS011;38667;42.872;74.622;2023-04-06T04:03:27;23.92;;;5.20;;
52798;SDS011;38667;42.872;74.622;2023-04-06T04:05:54;25.77;;;5.07;;
52798;SDS011;38667;42.872;74.622;2023-04-06T04:08:20;14.20;;;4.75;;
52798;SDS011;38667;42.872;74.622;2023-04-06T04:10:46;16.20;;;4.70;;
52798;SDS011;38667;42.872;74.622;2023-04-06T04:13:13;15.52;;;5.78;;
52798;SDS011;38667;42.872;74.622;2023-04-06T04:15:41;15.27;;;5.15;;
52798;SDS011;38667;42.872;74.622;2023-04-06T04:18:08;15.90;;;5.22;;
52798;SDS011;38667;42.872;74.622;2023-04-06T04:20:34;13.35;;;5.53;;
52798;SDS011;38667;42.872;74.622;2023-04-06T04:23:01;24.58;;;5.00;;
52798;SDS011;38667;42.872;74.622;2023-04-06T04:25:27;21.90;;;5.38;;
52798;SDS011;38667;42.872;74.622;2023-04-06T04:27:53;25.38;;;5.03;;
52798;SDS011;38667;42.872;74.622;2023-04-06T04:30:20;17.33;;;4.97;;
52798;SDS011;38667;42.872;74.622;2023-04-06T04:32:48;14.05;;;5.30;;
52798;SDS011;38667;42.872;74.622;2023-04-06T04:35:14;19.30;;;4.63;;
52798;SDS011;38667;42.872;74.622;2023-04-06T04:37:41;12.57;;;4.85;;
52798;SDS011;38667;42.872;74.622;2023-04-06T04:40:08;19.45;;;4.05;;
52798;SDS011;38667;42.872;74.622;2023-04-06T04:42:35;16.70;;;4.18;;
52798;SDS011;38667;42.872;74.622;2023-04-06T04:45:01;17.33;;;4.30;;
52798;SDS011;38667;42.872;74.622;2023-04-06T04:47:27;18.65;;;4.22;;
52798;SDS011;38667;42.872;74.622;2023-04-06T04:49:55;10.55;;;4.18;;
52798;SDS011;38667;42.872;74.622;2023-04-06T04:52:22;17.98;;;3.97;;
52798;SDS011;38667;42.872;74.622;2023-04-06T04:54:48;12.23;;;4.45;;
52798;SDS011;38667;42.872;74.622;2023-04-06T04:57:15;14.80;;;4.40;;
52798;SDS011;38667;42.872;74.622;2023-04-06T04:59:42;13.73;;;4.20;;
52798;SDS011;38667;42.872;74.622;2023-04-06T05:02:09;13.82;;;4.50;;
52798;SDS011;38667;42.872;74.622;2023-04-06T05:04:35;19.58;;;4.82;;
52798;SDS011;38667;42.872;74.622;2023-04-06T05:07:04;14.20;;;4.55;;
52798;SDS011;38667;42.872;74.622;2023-04-06T05:09:30;12.57;;;4.60;;
52798;SDS011;38667;42.872;74.622;2023-04-06T05:11:57;12.32;;;3.67;;
52798;SDS011;38667;42.872;74.622;2023-04-06T05:14:24;10.40;;;4.60;;
52798;SDS011;38667;42.872;74.622;2023-04-06T05:16:50;18.40;;;4.50;;
52798;SDS011;38667;42.872;74.622;2023-04-06T05:19:17;14.52;;;4.70;;
52798;SDS011;38667;42.872;74.622;2023-04-06T05:21:43;17.60;;;3.38;;
52798;SDS011;38667;42.872;74.622;2023-04-06T05:24:11;11.27;;;3.63;;
52798;SDS011;38667;42.872;74.622;2023-04-06T05:26:37;17.52;;;3.60;;
52798;SDS011;38667;42.872;74.622;2023-04-06T05:29:04;23.80;;;4.35;;
52798;SDS011;38667;42.872;74.622;2023-04-06T05:31:30;20.48;;;3.70;;
52798;SDS011;38667;42.872;74.622;2023-04-06T05:33:57;17.30;;;3.70;;
52798;SDS011;38667;42.872;74.622;2023-04-06T05:36:23;11.43;;;3.80;;
52798;SDS011;38667;42.872;74.622;2023-04-06T05:38:49;18.70;;;3.75;;
52798;SDS011;38667;42.872;74.622;2023-04-06T05:41:17;15.90;;;5.55;;
52798;SDS011;38667;42.872;74.622;2023-04-06T05:43:44;19.50;;;3.97;;
52798;SDS011;38667;42.872;74.622;2023-04-06T05:46:10;10.32;;;4.13;;
52798;SDS011;38667;42.872;74.622;2023-04-06T05:48:37;9.48;;;3.75;;
52798;SDS011;38667;42.872;74.622;2023-04-06T05:51:03;15.70;;;4.22;;
52798;SDS011;38667;42.872;74.622;2023-04-06T05:53:29;11.45;;;3.00;;
52798;SDS011;38667;42.872;74.622;2023-04-06T05:55:56;9.35;;;3.88;;
52798;SDS011;38667;42.872;74.622;2023-04-06T05:58:24;16.45;;;3.60;;
52798;SDS011;38667;42.872;74.622;2023-04-06T06:00:50;18.10;;;3.88;;
52798;SDS011;38667;42.872;74.622;2023-04-06T06:03:21;14.65;;;3.58;;
52798;SDS011;38667;42.872;74.622;2023-04-06T06:05:47;20.33;;;4.20;;
52798;SDS011;38667;42.872;74.622;2023-04-06T06:08:14;8.80;;;3.42;;
52798;SDS011;38667;42.872;74.622;2023-04-06T06:10:40;15.05;;;4.00;;
52798;SDS011;38667;42.872;74.622;2023-04-06T06:13:07;12.25;;;3.60;;
52798;SDS011;38667;42.872;74.622;2023-04-06T06:15:35;27.33;;;4.60;;
52798;SDS011;38667;42.872;74.622;2023-04-06T06:18:01;10.50;;;4.05;;
52798;SDS011;38667;42.872;74.622;2023-04-06T06:20:28;12.85;;;4.40;;
52798;SDS011;38667;42.872;74.622;2023-04-06T06:22:54;12.70;;;4.32;;
52798;SDS011;38667;42.872;74.622;2023-04-06T06:25:20;18.83;;;3.75;;
52798;SDS011;38667;42.872;74.622;2023-04-06T06:27:47;14.35;;;4.05;;
52798;SDS011;38667;42.872;74.622;2023-04-06T06:30:13;18.00;;;3.83;;
52798;SDS011;38667;42.872;74.622;2023-04-06T06:32:41;12.90;;;3.92;;
52798;SDS011;38667;42.872;74.622;2023-04-06T06:35:08;10.90;;;3.30;;
52798;SDS011;38667;42.872;74.622;2023-04-06T06:37:34;13.90;;;4.13;;
52798;SDS011;38667;42.872;74.622;2023-04-06T06:40:01;12.55;;;4.15;;
52798;SDS011;38667;42.872;74.622;2023-04-06T06:42:27;18.95;;;3.75;;
52798;SDS011;38667;42.872;74.622;2023-04-06T06:44:53;13.35;;;3.85;;
52798;SDS011;38667;42.872;74.622;2023-04-06T06:47:21;37.42;;;4.30;;
52798;SDS011;38667;42.872;74.622;2023-04-06T06:49:49;18.40;;;3.78;;
52798;SDS011;38667;42.872;74.622;2023-04-06T06:52:15;13.23;;;4.00;;
52798;SDS011;38667;42.872;74.622;2023-04-06T06:54:42;14.55;;;3.90;;
52798;SDS011;38667;42.872;74.622;2023-04-06T06:57:08;16.13;;;3.83;;
52798;SDS011;38667;42.872;74.622;2023-04-06T06:59:34;18.50;;;3.83;;
52798;SDS011;38667;42.872;74.622;2023-04-06T07:02:01;18.77;;;4.47;;
52798;SDS011;38667;42.872;74.622;2023-04-06T07:04:27;12.07;;;4.05;;
52798;SDS011;38667;42.872;74.622;2023-04-06T07:06:55;16.50;;;4.00;;
52798;SDS011;38667;42.872;74.622;2023-04-06T07:09:21;12.88;;;4.47;;
52798;SDS011;38667;42.872;74.622;2023-04-06T07:11:48;15.23;;;5.68;;
52798;SDS011;38667;42.872;74.622;2023-04-06T07:14:14;17.65;;;6.05;;
52798;SDS011;38667;42.872;74.622;2023-04-06T07:16:41;18.63;;;5.30;;
52798;SDS011;38667;42.872;74.622;2023-04-06T07:19:07;16.52;;;4.55;;
52798;SDS011;38667;42.872;74.622;2023-04-06T07:21:33;17.67;;;4.43;;
52798;SDS011;38667;42.872;74.622;2023-04-06T07:24:01;16.80;;;4.63;;
52798;SDS011;38667;42.872;74.622;2023-04-06T07:26:28;27.85;;;4.95;;
52798;SDS011;38667;42.872;74.622;2023-04-06T07:28:54;23.67;;;6.00;;
52798;SDS011;38667;42.872;74.622;2023-04-06T07:31:21;18.60;;;5.90;;
52798;SDS011;38667;42.872;74.622;2023-04-06T07:33:47;19.00;;;4.85;;
52798;SDS011;38667;42.872;74.622;2023-04-06T07:36:13;18.73;;;4.53;;
52798;SDS011;38667;42.872;74.622;2023-04-06T07:38:40;14.98;;;4.82;;
52798;SDS011;38667;42.872;74.622;2023-04-06T07:41:08;19.63;;;4.90;;
52798;SDS011;38667;42.872;74.622;2023-04-06T07:43:34;19.65;;;4.55;;
52798;SDS011;38667;42.872;74.622;2023-04-06T07:46:00;16.92;;;5.22;;
52798;SDS011;38667;42.872;74.622;2023-04-06T07:48:27;10.60;;;4.18;;
52798;SDS011;38667;42.872;74.622;2023-04-06T07:51:00;22.02;;;5.22;;
52798;SDS011;38667;42.872;74.622;2023-04-06T07:53:26;11.23;;;5.25;;
52798;SDS011;38667;42.872;74.622;2023-04-06T07:55:53;12.07;;;6.57;;
52798;SDS011;38667;42.872;74.622;2023-04-06T07:58:21;16.00;;;6.38;;
52798;SDS011;38667;42.872;74.622;2023-04-06T08:13:23;14.85;;;6.53;;
52798;SDS011;38667;42.872;74.622;2023-04-06T08:15:49;16.58;;;6.97;;
52798;SDS011;38667;42.872;74.622;2023-04-06T08:18:15;15.23;;;6.30;;
52798;SDS011;38667;42.872;74.622;2023-04-06T08:20:42;15.13;;;6.80;;
52798;SDS011;38667;42.872;74.622;2023-04-06T08:23:08;15.43;;;6.78;;
52798;SDS011;38667;42.872;74.622;2023-04-06T08:25:35;15.00;;;6.53;;
52798;SDS011;38667;42.872;74.622;2023-04-06T08:28:02;22.65;;;7.40;;
52798;SDS011;38667;42.872;74.622;2023-04-06T08:30:30;24.35;;;6.88;;
52798;SDS011;38667;42.872;74.622;2023-04-06T08:32:56;15.00;;;7.13;;
52798;SDS011;38667;42.872;74.622;2023-04-06T08:35:23;15.88;;;7.28;;
52798;SDS011;38667;42.872;74.622;2023-04-06T08:37:49;18.10;;;7.47;;
52798;SDS011;38667;42.872;74.622;2023-04-06T08:40:15;15.85;;;6.50;;
52798;SDS011;38667;42.872;74.622;2023-04-06T08:42:44;19.98;;;6.63;;
52798;SDS011;38667;42.872;74.622;2023-04-06T08:45:17;12.23;;;5.72;;
52798;SDS011;38667;42.872;74.622;2023-04-06T08:47:45;10.18;;;5.65;;
52798;SDS011;38667;42.872;74.622;2023-04-06T08:50:13;11.32;;;6.07;;
52798;SDS011;38667;42.872;74.622;2023-04-06T08:52:41;22.27;;;5.40;;
52798;SDS011;38667;42.872;74.622;2023-04-06T08:55:09;11.00;;;6.00;;
52798;SDS011;38667;42.872;74.622;2023-04-06T08:57:35;22.88;;;5.95;;
52798;SDS011;38667;42.872;74.622;2023-04-06T09:00:02;14.32;;;4.93;;
52798;SDS011;38667;42.872;74.622;2023-04-06T09:02:29;10.02;;;5.93;;
52798;SDS011;38667;42.872;74.622;2023-04-06T09:04:58;11.52;;;5.53;;
52798;SDS011;38667;42.872;74.622;2023-04-06T09:07:25;12.63;;;5.95;;
52798;SDS011;38667;42.872;74.622;2023-04-06T09:09:52;23.38;;;6.05;;
52798;SDS011;38667;42.872;74.622;2023-04-06T09:12:25;19.30;;;7.22;;
52798;SDS011;38667;42.872;74.622;2023-04-06T09:14:52;15.82;;;6.50;;
52798;SDS011;38667;42.872;74.622;2023-04-06T09:17:21;14.95;;;6.70;;
52798;SDS011;38667;42.872;74.622;2023-04-06T09:19:48;19.00;;;6.25;;
52798;SDS011;38667;42.872;74.622;2023-04-06T09:22:17;8.73;;;4.80;;
52798;SDS011;38667;42.872;74.622;2023-04-06T09:24:44;7.85;;;4.00;;
52798;SDS011;38667;42.872;74.622;2023-04-06T09:27:11;10.07;;;3.90;;
52798;SDS011;38667;42.872;74.622;2023-04-06T09:29:38;12.48;;;3.80;;
52798;SDS011;38667;42.872;74.622;2023-04-06T09:32:05;8.35;;;3.88;;
52798;SDS011;38667;42.872;74.622;2023-04-06T09:34:33;12.93;;;4.47;;
52798;SDS011;38667;42.872;74.622;2023-04-06T09:36:59;11.35;;;4.78;;
52798;SDS011;38667;42.872;74.622;2023-04-06T09:39:27;15.30;;;4.40;;
52798;SDS011;38667;42.872;74.622;2023-04-06T09:41:54;9.27;;;4.40;;
52798;SDS011;38667;42.872;74.622;2023-04-06T09:44:20;13.40;;;4.95;;
52798;SDS011;38667;42.872;74.622;2023-04-06T09:46:47;16.77;;;5.45;;
52798;SDS011;38667;42.872;74.622;2023-04-06T09:49:13;15.05;;;5.20;;
52798;SDS011;38667;42.872;74.622;2023-04-06T09:51:40;12.50;;;5.53;;
52798;SDS011;38667;42.872;74.622;2023-04-06T09:54:10;13.32;;;5.50;;
52798;SDS011;38667;42.872;74.622;2023-04-06T09:56:43;10.15;;;5.85;;
52798;SDS011;38667;42.872;74.622;2023-04-06T09:59:12;12.75;;;6.15;;
52798;SDS011;38667;42.872;74.622;2023-04-06T10:01:41;10.00;;;5.50;;
52798;SDS011;38667;42.872;74.622;2023-04-06T10:04:12;9.27;;;5.63;;
52798;SDS011;38667;42.872;74.622;2023-04-06T10:06:45;12.40;;;5.00;;
52798;SDS011;38667;42.872;74.622;2023-04-06T10:09:12;12.82;;;5.75;;
52798;SDS011;38667;42.872;74.622;2023-04-06T10:11:39;21.00;;;4.82;;
52798;SDS011;38667;42.872;74.622;2023-04-06T10:14:08;12.88;;;4.75;;
52798;SDS011;38667;42.872;74.622;2023-04-06T10:16:35;17.88;;;5.85;;
52798;SDS011;38667;42.872;74.622;2023-04-06T10:19:05;12.88;;;5.60;;
52798;SDS011;38667;42.872;74.622;2023-04-06T10:21:36;15.25;;;5.82;;
52798;SDS011;38667;42.872;74.622;2023-04-06T10:24:06;12.43;;;5.82;;
52798;SDS011;38667;42.872;74.622;2023-04-06T10:26:34;10.65;;;5.72;;
52798;SDS011;38667;42.872;74.622;2023-04-06T10:29:02;12.75;;;5.82;;
52798;SDS011;38667;42.872;74.622;2023-04-06T10:31:31;15.32;;;6.13;;
52798;SDS011;38667;42.872;74.622;2023-04-06T10:33:58;15.45;;;6.43;;
52798;SDS011;38667;42.872;74.622;2023-04-06T10:36:25;16.95;;;8.10;;
52798;SDS011;38667;42.872;74.622;2023-04-06T10:38:56;16.98;;;7.43;;
52798;SDS011;38667;42.872;74.622;2023-04-06T10:41:23;11.95;;;7.45;;
52798;SDS011;38667;42.872;74.622;2023-04-06T10:43:57;13.93;;;7.35;;
52798;SDS011;38667;42.872;74.622;2023-04-06T10:46:25;16.00;;;6.65;;
52798;SDS011;38667;42.872;74.622;2023-04-06T10:48:55;15.00;;;7.55;;
52798;SDS011;38667;42.872;74.622;2023-04-06T10:51:24;13.50;;;6.65;;
52798;SDS011;38667;42.872;74.622;2023-04-06T10:53:52;16.38;;;7.05;;
52798;SDS011;38667;42.872;74.622;2023-04-06T10:56:21;19.02;;;6.78;;
52798;SDS011;38667;42.872;74.622;2023-04-06T10:58:49;13.75;;;6.38;;
52798;SDS011;38667;42.872;74.622;2023-04-06T11:01:17;12.07;;;6.40;;
52798;SDS011;38667;42.872;74.622;2023-04-06T11:03:45;11.18;;;6.72;;
52798;SDS011;38667;42.872;74.622;2023-04-06T11:06:19;10.35;;;6.40;;
52798;SDS011;38667;42.872;74.622;2023-04-06T11:08:46;14.57;;;6.25;;
52798;SDS011;38667;42.872;74.622;2023-04-06T11:11:14;12.88;;;6.78;;
52798;SDS011;38667;42.872;74.622;2023-04-06T11:13:42;14.27;;;7.40;;
52798;SDS011;38667;42.872;74.622;2023-04-06T11:16:13;13.52;;;7.00;;
52798;SDS011;38667;42.872;74.622;2023-04-06T11:18:47;15.00;;;8.20;;
52798;SDS011;38667;42.872;74.622;2023-04-06T11:21:14;17.10;;;8.52;;
52798;SDS011;38667;42.872;74.622;2023-04-06T11:23:42;20.75;;;8.48;;
52798;SDS011;38667;42.872;74.622;2023-04-06T11:26:10;18.95;;;7.82;;
52798;SDS011;38667;42.872;74.622;2023-04-06T11:28:37;12.73;;;6.55;;
52798;SDS011;38667;42.872;74.622;2023-04-06T11:31:03;15.20;;;7.85;;
52798;SDS011;38667;42.872;74.622;2023-04-06T11:33:34;18.55;;;7.50;;
52798;SDS011;38667;42.872;74.622;2023-04-06T11:36:01;12.95;;;6.95;;
52798;SDS011;38667;42.872;74.622;2023-04-06T11:38:28;20.73;;;7.88;;
52798;SDS011;38667;42.872;74.622;2023-04-06T11:40:56;17.23;;;8.02;;
52798;SDS011;38667;42.872;74.622;2023-04-06T11:43:26;12.85;;;8.25;;
52798;SDS011;38667;42.872;74.622;2023-04-06T11:45:58;15.25;;;7.25;;
52798;SDS011;38667;42.872;74.622;2023-04-06T11:48:25;16.10;;;8.23;;
52798;SDS011;38667;42.872;74.622;2023-04-06T11:50:55;19.70;;;7.68;;
52798;SDS011;38667;42.872;74.622;2023-04-06T11:53:22;21.42;;;8.50;;
52798;SDS011;38667;42.872;74.622;2023-04-06T11:55:48;26.13;;;9.45;;
52798;SDS011;38667;42.872;74.622;2023-04-06T11:58:16;24.83;;;9.15;;
52798;SDS011;38667;42.872;74.622;2023-04-06T12:00:43;29.10;;;9.18;;
52798;SDS011;38667;42.872;74.622;2023-04-06T12:03:10;33.90;;;8.80;;
52798;SDS011;38667;42.872;74.622;2023-04-06T12:05:36;22.33;;;9.32;;
52798;SDS011;38667;42.872;74.622;2023-04-06T12:08:03;46.10;;;11.93;;
52798;SDS011;38667;42.872;74.622;2023-04-06T12:10:29;38.15;;;11.50;;
52798;SDS011;38667;42.872;74.622;2023-04-06T12:12:56;45.83;;;12.43;;
52798;SDS011;38667;42.872;74.622;2023-04-06T12:15:24;35.67;;;12.65;;
52798;SDS011;38667;42.872;74.622;2023-04-06T12:17:50;50.90;;;13.55;;
52798;SDS011;38667;42.872;74.622;2023-04-06T12:20:16;37.28;;;11.57;;
52798;SDS011;38667;42.872;74.622;2023-04-06T12:22:43;39.65;;;11.30;;
52798;SDS011;38667;42.872;74.622;2023-04-06T12:25:09;27.27;;;9.93;;
52798;SDS011;38667;42.872;74.622;2023-04-06T12:27:36;28.90;;;12.25;;
52798;SDS011;38667;42.872;74.622;2023-04-06T12:30:02;40.67;;;13.30;;
52798;SDS011;38667;42.872;74.622;2023-04-06T12:32:31;27.83;;;12.85;;
52798;SDS011;38667;42.872;74.622;2023-04-06T12:34:57;26.20;;;10.07;;
52798;SDS011;38667;42.872;74.622;2023-04-06T12:37:23;28.27;;;12.93;;
52798;SDS011;38667;42.872;74.622;2023-04-06T12:39:50;25.98;;;11.30;;
52798;SDS011;38667;42.872;74.622;2023-04-06T12:42:17;24.15;;;11.05;;
52798;SDS011;38667;42.872;74.622;2023-04-06T12:44:44;27.10;;;9.13;;
52798;SDS011;38667;42.872;74.622;2023-04-06T12:47:10;26.50;;;9.73;;
52798;SDS011;38667;42.872;74.622;2023-04-06T12:49:39;26.23;;;10.40;;
52798;SDS011;38667;42.872;74.622;2023-04-06T12:52:05;28.17;;;10.05;;
52798;SDS011;38667;42.872;74.622;2023-04-06T12:54:32;24.83;;;10.02;;
52798;SDS011;38667;42.872;74.622;2023-04-06T12:56:58;32.70;;;13.50;;
52798;SDS011;38667;42.872;74.622;2023-04-06T12:59:24;37.78;;;16.95;;
52798;SDS011;38667;42.872;74.622;2023-04-06T13:01:51;37.58;;;16.58;;
52798;SDS011;38667;42.872;74.622;2023-04-06T13:04:17;44.95;;;18.55;;
52798;SDS011;38667;42.872;74.622;2023-04-06T13:06:45;44.28;;;17.50;;
52798;SDS011;38667;42.872;74.622;2023-04-06T13:09:11;43.90;;;18.40;;
52798;SDS011;38667;42.872;74.622;2023-04-06T13:11:38;54.33;;;21.20;;
52798;SDS011;38667;42.872;74.622;2023-04-06T13:14:04;37.42;;;17.77;;
52798;SDS011;38667;42.872;74.622;2023-04-06T13:16:30;33.75;;;15.98;;
52798;SDS011;38667;42.872;74.622;2023-04-06T13:18:57;32.63;;;14.30;;
52798;SDS011;38667;42.872;74.622;2023-04-06T13:21:23;27.05;;;15.02;;
52798;SDS011;38667;42.872;74.622;2023-04-06T13:23:51;39.28;;;19.38;;
52798;SDS011;38667;42.872;74.622;2023-04-06T13:26:17;37.47;;;17.95;;
52798;SDS011;38667;42.872;74.622;2023-04-06T13:28:43;33.80;;;17.92;;
52798;SDS011;38667;42.872;74.622;2023-04-06T13:31:10;43.92;;;18.88;;
52798;SDS011;38667;42.872;74.622;2023-04-06T13:33:36;49.60;;;20.50;;
52798;SDS011;38667;42.872;74.622;2023-04-06T13:36:03;42.78;;;20.70;;
52798;SDS011;38667;42.872;74.622;2023-04-06T13:38:31;50.65;;;23.73;;
52798;SDS011;38667;42.872;74.622;2023-04-06T13:40:59;38.53;;;21.08;;
52798;SDS011;38667;42.872;74.622;2023-04-06T13:43:25;48.20;;;22.70;;
52798;SDS011;38667;42.872;74.622;2023-04-06T13:45:52;37.40;;;16.48;;
52798;SDS011;38667;42.872;74.622;2023-04-06T13:48:19;32.70;;;18.70;;
52798;SDS011;38667;42.872;74.622;2023-04-06T13:50:46;25.45;;;14.27;;
52798;SDS011;38667;42.872;74.622;2023-04-06T13:53:12;34.92;;;16.70;;
52798;SDS011;38667;42.872;74.622;2023-04-06T13:55:39;46.83;;;19.05;;
52798;SDS011;38667;42.872;74.622;2023-04-06T13:58:07;51.53;;;23.70;;
52798;SDS011;38667;42.872;74.622;2023-04-06T14:00:34;29.75;;;15.55;;
52798;SDS011;38667;42.872;74.622;2023-04-06T14:03:00;28.10;;;14.95;;
52798;SDS011;38667;42.872;74.622;2023-04-06T14:05:30;33.55;;;15.65;;
52798;SDS011;38667;42.872;74.622;2023-04-06T14:07:57;33.08;;;14.70;;
52798;SDS011;38667;42.872;74.622;2023-04-06T14:10:23;26.15;;;11.20;;
52798;SDS011;38667;42.872;74.622;2023-04-06T14:12:49;23.77;;;13.55;;
52798;SDS011;38667;42.872;74.622;2023-04-06T14:15:17;35.35;;;13.18;;
52798;SDS011;38667;42.872;74.622;2023-04-06T14:17:43;31.25;;;12.27;;
52798;SDS011;38667;42.872;74.622;2023-04-06T14:20:10;33.67;;;11.05;;
52798;SDS011;38667;42.872;74.622;2023-04-06T14:22:37;20.10;;;9.35;;
52798;SDS011;38667;42.872;74.622;2023-04-06T14:25:03;21.05;;;8.70;;
52798;SDS011;38667;42.872;74.622;2023-04-06T14:27:30;21.08;;;9.38;;
52798;SDS011;38667;42.872;74.622;2023-04-06T14:29:56;19.98;;;9.60;;
52798;SDS011;38667;42.872;74.622;2023-04-06T14:32:24;27.48;;;9.95;;